sensor_id;sensor_type;location;lat;lon;timestamp;pressure;altitude;pressure_sealevel;temperature;humidity
15884;BME280;8040;50.254;10.960;2022-09-01T00:01:15;98629.59;;;18.35;59.00
15884;BME280;8040;50.254;10.960;2022-09-01T00:04:04;98625.47;;;18.41;58.69
15884;BME280;8040;50.254;10.960;2022-09-01T00:06:48;98635.00;;;18.44;58.56
15884;BME280;8040;50.254;10.960;2022-09-01T00:09:32;98633.41;;;18.43;58.34
15884;BME280;8040;50.254;10.960;2022-09-01T00:12:16;98629.59;;;18.35;58.48
15884;BME280;8040;50.254;10.960;2022-09-01T00:15:01;98630.06;;;18.37;58.19
15884;BME280;8040;50.254;10.960;2022-09-01T00:17:44;98634.88;;;18.40;57.95
15884;BME280;8040;50.254;10.960;2022-09-01T00:20:29;98638.19;;;18.34;58.06
15884;BME280;8040;50.254;10.960;2022-09-01T00:23:12;98637.06;;;18.35;58.06
15884;BME280;8040;50.254;10.960;2022-09-01T00:25:56;98640.47;;;18.32;58.16
15884;BME280;8040;50.254;10.960;2022-09-01T00:28:40;98630.03;;;18.25;58.20
15884;BME280;8040;50.254;10.960;2022-09-01T00:31:24;98639.53;;;18.28;58.19
15884;BME280;8040;50.254;10.960;2022-09-01T00:34:08;98638.00;;;18.18;58.25
15884;BME280;8040;50.254;10.960;2022-09-01T00:36:52;98635.97;;;18.27;58.24
15884;BME280;8040;50.254;10.960;2022-09-01T00:39:36;98636.19;;;18.22;58.03
15884;BME280;8040;50.254;10.960;2022-09-01T00:42:20;98630.47;;;18.27;57.89
15884;BME280;8040;50.254;10.960;2022-09-01T00:45:05;98631.28;;;18.28;57.94
15884;BME280;8040;50.254;10.960;2022-09-01T00:47:50;98633.88;;;18.24;57.79
15884;BME280;8040;50.254;10.960;2022-09-01T00:50:34;98621.53;;;18.18;57.89
15884;BME280;8040;50.254;10.960;2022-09-01T00:53:19;98625.88;;;18.19;58.04
15884;BME280;8040;50.254;10.960;2022-09-01T00:56:03;98621.06;;;18.16;58.08
15884;BME280;8040;50.254;10.960;2022-09-01T00:58:48;98629.19;;;18.13;57.94
15884;BME280;8040;50.254;10.960;2022-09-01T01:01:33;98625.75;;;18.16;58.08
15884;BME280;8040;50.254;10.960;2022-09-01T01:04:20;98622.19;;;18.15;57.94
15884;BME280;8040;50.254;10.960;2022-09-01T01:07:04;98618.19;;;18.13;57.98
15884;BME280;8040;50.254;10.960;2022-09-01T01:09:49;98616.22;;;18.01;58.30
15884;BME280;8040;50.254;10.960;2022-09-01T01:12:33;98615.63;;;17.96;58.43
15884;BME280;8040;50.254;10.960;2022-09-01T01:15:20;98615.41;;;18.01;58.21
15884;BME280;8040;50.254;10.960;2022-09-01T01:18:05;98617.91;;;17.94;58.20
15884;BME280;8040;50.254;10.960;2022-09-01T01:21:02;98614.63;;;18.00;58.13
15884;BME280;8040;50.254;10.960;2022-09-01T01:24:08;98614.59;;;17.88;58.28
15884;BME280;8040;50.254;10.960;2022-09-01T01:26:53;98619.72;;;17.90;58.34
15884;BME280;8040;50.254;10.960;2022-09-01T01:29:42;98614.09;;;17.86;58.28
15884;BME280;8040;50.254;10.960;2022-09-01T01:32:27;98606.75;;;17.78;58.56
15884;BME280;8040;50.254;10.960;2022-09-01T01:35:11;98607.56;;;17.79;58.58
15884;BME280;8040;50.254;10.960;2022-09-01T01:37:57;98609.59;;;17.70;58.63
15884;BME280;8040;50.254;10.960;2022-09-01T01:40:41;98609.31;;;17.63;59.01
15884;BME280;8040;50.254;10.960;2022-09-01T01:43:25;98603.25;;;17.57;59.19
15884;BME280;8040;50.254;10.960;2022-09-01T01:46:10;98609.31;;;17.63;59.01
15884;BME280;8040;50.254;10.960;2022-09-01T01:48:54;98609.84;;;17.56;58.98
15884;BME280;8040;50.254;10.960;2022-09-01T01:51:39;98615.94;;;17.62;58.86
15884;BME280;8040;50.254;10.960;2022-09-01T01:54:24;98612.13;;;17.54;58.99
15884;BME280;8040;50.254;10.960;2022-09-01T01:57:09;98603.44;;;17.52;59.11
15884;BME280;8040;50.254;10.960;2022-09-01T01:59:53;98607.34;;;17.51;58.99
15884;BME280;8040;50.254;10.960;2022-09-01T02:02:38;98609.25;;;17.51;58.81
15884;BME280;8040;50.254;10.960;2022-09-01T02:05:25;98603.91;;;17.54;58.63
15884;BME280;8040;50.254;10.960;2022-09-01T02:08:09;98611.31;;;17.54;58.68
15884;BME280;8040;50.254;10.960;2022-09-01T02:10:54;98604.38;;;17.56;58.48
15884;BME280;8040;50.254;10.960;2022-09-01T02:13:38;98603.38;;;17.61;58.62
15884;BME280;8040;50.254;10.960;2022-09-01T02:16:26;98599.94;;;17.64;58.63
15884;BME280;8040;50.254;10.960;2022-09-01T02:19:11;98602.25;;;17.62;58.52
15884;BME280;8040;50.254;10.960;2022-09-01T02:21:55;98594.91;;;17.66;58.62
15884;BME280;8040;50.254;10.960;2022-09-01T02:24:39;98601.56;;;17.65;58.60
15884;BME280;8040;50.254;10.960;2022-09-01T02:27:29;98599.81;;;17.60;58.38
15884;BME280;8040;50.254;10.960;2022-09-01T02:30:16;98606.00;;;17.57;58.46
15884;BME280;8040;50.254;10.960;2022-09-01T02:33:00;98600.84;;;17.56;58.66
15884;BME280;8040;50.254;10.960;2022-09-01T02:35:44;98592.22;;;17.45;58.80
15884;BME280;8040;50.254;10.960;2022-09-01T02:38:29;98597.94;;;17.32;59.42
15884;BME280;8040;50.254;10.960;2022-09-01T02:41:14;98595.16;;;17.40;59.10
15884;BME280;8040;50.254;10.960;2022-09-01T02:43:59;98591.28;;;17.41;59.29
15884;BME280;8040;50.254;10.960;2022-09-01T02:46:45;98594.59;;;17.47;59.39
15884;BME280;8040;50.254;10.960;2022-09-01T02:49:29;98598.94;;;17.48;59.24
15884;BME280;8040;50.254;10.960;2022-09-01T02:52:13;98594.97;;;17.45;59.04
15884;BME280;8040;50.254;10.960;2022-09-01T02:54:59;98599.66;;;17.36;59.33
15884;BME280;8040;50.254;10.960;2022-09-01T02:57:44;98592.88;;;17.42;59.35
15884;BME280;8040;50.254;10.960;2022-09-01T03:00:30;98588.66;;;17.45;59.71
15884;BME280;8040;50.254;10.960;2022-09-01T03:03:16;98594.59;;;17.47;60.05
15884;BME280;8040;50.254;10.960;2022-09-01T03:06:04;98594.59;;;17.47;60.01
15884;BME280;8040;50.254;10.960;2022-09-01T03:08:52;98587.84;;;17.44;60.07
15884;BME280;8040;50.254;10.960;2022-09-01T03:11:38;98589.19;;;17.38;60.03
15884;BME280;8040;50.254;10.960;2022-09-01T03:14:22;98585.50;;;17.34;60.19
15884;BME280;8040;50.254;10.960;2022-09-01T03:17:06;98581.00;;;17.30;60.43
15884;BME280;8040;50.254;10.960;2022-09-01T03:19:50;98586.84;;;17.28;60.71
15884;BME280;8040;50.254;10.960;2022-09-01T03:22:34;98576.88;;;17.24;60.88
15884;BME280;8040;50.254;10.960;2022-09-01T03:25:18;98587.34;;;17.22;60.85
15884;BME280;8040;50.254;10.960;2022-09-01T03:28:03;98583.34;;;17.19;61.30
15884;BME280;8040;50.254;10.960;2022-09-01T03:30:49;98587.22;;;17.18;61.45
15884;BME280;8040;50.254;10.960;2022-09-01T03:33:33;98580.97;;;17.18;61.48
15884;BME280;8040;50.254;10.960;2022-09-01T03:36:19;98581.75;;;17.18;61.76
15884;BME280;8040;50.254;10.960;2022-09-01T03:39:03;98578.22;;;17.18;61.50
15884;BME280;8040;50.254;10.960;2022-09-01T03:41:47;98578.69;;;17.20;61.65
15884;BME280;8040;50.254;10.960;2022-09-01T03:44:31;98582.19;;;17.20;61.82
15884;BME280;8040;50.254;10.960;2022-09-01T03:47:23;98571.91;;;17.17;61.61
15884;BME280;8040;50.254;10.960;2022-09-01T03:50:13;98574.53;;;17.14;61.80
15884;BME280;8040;50.254;10.960;2022-09-01T03:53:02;98579.31;;;17.17;61.80
15884;BME280;8040;50.254;10.960;2022-09-01T03:55:47;98579.69;;;17.15;62.07
15884;BME280;8040;50.254;10.960;2022-09-01T03:58:31;98576.13;;;17.15;61.82
15884;BME280;8040;50.254;10.960;2022-09-01T04:01:15;98581.16;;;17.13;62.04
15884;BME280;8040;50.254;10.960;2022-09-01T04:03:59;98581.81;;;17.10;61.94
15884;BME280;8040;50.254;10.960;2022-09-01T04:06:45;98578.94;;;17.06;62.32
15884;BME280;8040;50.254;10.960;2022-09-01T04:09:32;98569.44;;;17.04;62.31
15884;BME280;8040;50.254;10.960;2022-09-01T04:12:16;98565.97;;;16.95;62.63
15884;BME280;8040;50.254;10.960;2022-09-01T04:15:00;98567.00;;;17.02;62.80
15884;BME280;8040;50.254;10.960;2022-09-01T04:17:44;98570.91;;;17.01;62.72
15884;BME280;8040;50.254;10.960;2022-09-01T04:20:54;98572.13;;;17.12;62.50
15884;BME280;8040;50.254;10.960;2022-09-01T04:23:39;98562.81;;;17.05;62.64
15884;BME280;8040;50.254;10.960;2022-09-01T04:26:23;98569.25;;;17.09;62.95
15884;BME280;8040;50.254;10.960;2022-09-01T04:29:09;98574.06;;;17.12;62.73
15884;BME280;8040;50.254;10.960;2022-09-01T04:32:02;98583.06;;;17.12;63.05
15884;BME280;8040;50.254;10.960;2022-09-01T04:34:47;98557.06;;;16.98;62.97
15884;BME280;8040;50.254;10.960;2022-09-01T04:37:32;98582.13;;;17.08;63.08
15884;BME280;8040;50.254;10.960;2022-09-01T04:40:19;98570.72;;;17.06;62.80
15884;BME280;8040;50.254;10.960;2022-09-01T04:43:06;98569.28;;;17.00;62.98
15884;BME280;8040;50.254;10.960;2022-09-01T04:45:51;98574.31;;;16.98;63.19
15884;BME280;8040;50.254;10.960;2022-09-01T04:48:37;98567.09;;;16.94;63.21
15884;BME280;8040;50.254;10.960;2022-09-01T04:51:22;98574.78;;;17.00;63.05
15884;BME280;8040;50.254;10.960;2022-09-01T04:54:08;98583.47;;;17.02;63.17
15884;BME280;8040;50.254;10.960;2022-09-01T04:56:56;98582.06;;;16.96;63.36
15884;BME280;8040;50.254;10.960;2022-09-01T04:59:40;98579.53;;;16.91;63.10
15884;BME280;8040;50.254;10.960;2022-09-01T05:02:25;98576.97;;;16.86;63.59
15884;BME280;8040;50.254;10.960;2022-09-01T05:05:11;98578.91;;;16.86;63.40
15884;BME280;8040;50.254;10.960;2022-09-01T05:07:55;98585.19;;;16.86;63.72
15884;BME280;8040;50.254;10.960;2022-09-01T05:10:45;98571.69;;;16.81;63.85
15884;BME280;8040;50.254;10.960;2022-09-01T05:13:29;98588.16;;;17.02;63.68
15884;BME280;8040;50.254;10.960;2022-09-01T05:16:17;98576.59;;;17.17;63.48
15884;BME280;8040;50.254;10.960;2022-09-01T05:19:04;98590.00;;;17.59;62.69
15884;BME280;8040;50.254;10.960;2022-09-01T05:21:49;98594.97;;;18.22;60.88
15884;BME280;8040;50.254;10.960;2022-09-01T05:24:33;98586.59;;;18.75;58.52
15884;BME280;8040;50.254;10.960;2022-09-01T05:27:18;98588.84;;;18.97;57.05
15884;BME280;8040;50.254;10.960;2022-09-01T05:30:02;98593.28;;;19.38;56.08
15884;BME280;8040;50.254;10.960;2022-09-01T05:32:50;98590.28;;;19.70;55.26
15884;BME280;8040;50.254;10.960;2022-09-01T05:35:38;98609.06;;;19.80;54.45
15884;BME280;8040;50.254;10.960;2022-09-01T05:38:27;98607.38;;;19.76;54.68
15884;BME280;8040;50.254;10.960;2022-09-01T05:41:16;98615.34;;;19.65;54.66
15884;BME280;8040;50.254;10.960;2022-09-01T05:44:02;98608.34;;;19.68;54.82
15884;BME280;8040;50.254;10.960;2022-09-01T05:46:50;98596.84;;;19.66;54.69
15884;BME280;8040;50.254;10.960;2022-09-01T05:49:35;98607.03;;;19.77;54.03
15884;BME280;8040;50.254;10.960;2022-09-01T05:52:20;98601.34;;;19.86;53.21
15884;BME280;8040;50.254;10.960;2022-09-01T05:55:07;98597.09;;;19.88;52.53
15884;BME280;8040;50.254;10.960;2022-09-01T05:57:52;98591.69;;;19.92;52.83
15884;BME280;8040;50.254;10.960;2022-09-01T06:00:36;98599.25;;;20.22;52.44
15884;BME280;8040;50.254;10.960;2022-09-01T06:03:21;98599.09;;;20.31;52.09
15884;BME280;8040;50.254;10.960;2022-09-01T06:06:07;98607.63;;;19.71;52.69
15884;BME280;8040;50.254;10.960;2022-09-01T06:08:54;98603.41;;;19.61;53.34
15884;BME280;8040;50.254;10.960;2022-09-01T06:11:43;98610.59;;;19.14;54.45
15884;BME280;8040;50.254;10.960;2022-09-01T06:14:29;98598.84;;;18.66;55.82
15884;BME280;8040;50.254;10.960;2022-09-01T06:17:13;98602.34;;;18.42;57.07
15884;BME280;8040;50.254;10.960;2022-09-01T06:19:58;98602.00;;;18.32;57.48
15884;BME280;8040;50.254;10.960;2022-09-01T06:22:43;98586.34;;;18.32;57.64
15884;BME280;8040;50.254;10.960;2022-09-01T06:25:28;98606.28;;;18.53;57.49
15884;BME280;8040;50.254;10.960;2022-09-01T06:28:16;98613.16;;;18.71;56.97
15884;BME280;8040;50.254;10.960;2022-09-01T06:31:05;98606.06;;;18.70;56.64
15884;BME280;8040;50.254;10.960;2022-09-01T06:33:52;98618.88;;;18.78;56.59
15884;BME280;8040;50.254;10.960;2022-09-01T06:36:37;98616.47;;;18.53;56.65
15884;BME280;8040;50.254;10.960;2022-09-01T06:39:23;98606.75;;;18.43;56.79
15884;BME280;8040;50.254;10.960;2022-09-01T06:42:09;98607.97;;;18.34;57.19
15884;BME280;8040;50.254;10.960;2022-09-01T06:44:56;98598.78;;;18.30;57.27
15884;BME280;8040;50.254;10.960;2022-09-01T06:47:41;98607.31;;;18.49;57.28
15884;BME280;8040;50.254;10.960;2022-09-01T06:50:27;98613.63;;;18.49;57.14
15884;BME280;8040;50.254;10.960;2022-09-01T06:53:13;98608.22;;;18.53;57.34
15884;BME280;8040;50.254;10.960;2022-09-01T06:56:01;98604.56;;;18.49;57.14
15884;BME280;8040;50.254;10.960;2022-09-01T06:58:45;98600.88;;;18.33;57.02
15884;BME280;8040;50.254;10.960;2022-09-01T07:01:31;98621.34;;;18.35;57.49
15884;BME280;8040;50.254;10.960;2022-09-01T07:04:15;98616.88;;;17.98;58.08
15884;BME280;8040;50.254;10.960;2022-09-01T07:07:02;98615.16;;;17.94;58.16
15884;BME280;8040;50.254;10.960;2022-09-01T07:09:48;98619.66;;;18.10;58.31
15884;BME280;8040;50.254;10.960;2022-09-01T07:12:32;98612.50;;;18.30;57.53
15884;BME280;8040;50.254;10.960;2022-09-01T07:15:18;98608.13;;;18.49;56.97
15884;BME280;8040;50.254;10.960;2022-09-01T07:18:02;98613.63;;;18.61;56.39
15884;BME280;8040;50.254;10.960;2022-09-01T07:20:47;98601.94;;;18.64;56.09
15884;BME280;8040;50.254;10.960;2022-09-01T07:23:32;98608.81;;;18.82;55.70
15884;BME280;8040;50.254;10.960;2022-09-01T07:26:17;98613.75;;;18.89;55.45
15884;BME280;8040;50.254;10.960;2022-09-01T07:29:04;98605.34;;;18.97;55.23
15884;BME280;8040;50.254;10.960;2022-09-01T07:31:49;98607.31;;;19.09;55.08
15884;BME280;8040;50.254;10.960;2022-09-01T07:34:33;98622.66;;;18.98;54.32
15884;BME280;8040;50.254;10.960;2022-09-01T07:37:18;98612.47;;;18.62;55.21
15884;BME280;8040;50.254;10.960;2022-09-01T07:40:08;98621.72;;;18.82;54.99
15884;BME280;8040;50.254;10.960;2022-09-01T07:42:53;98624.03;;;18.92;54.51
15884;BME280;8040;50.254;10.960;2022-09-01T07:45:42;98615.22;;;18.98;54.18
15884;BME280;8040;50.254;10.960;2022-09-01T07:48:30;98631.25;;;19.20;54.17
15884;BME280;8040;50.254;10.960;2022-09-01T07:51:15;98635.22;;;19.47;53.95
15884;BME280;8040;50.254;10.960;2022-09-01T07:54:03;98628.47;;;19.44;52.73
15884;BME280;8040;50.254;10.960;2022-09-01T07:56:47;98626.78;;;19.28;52.68
15884;BME280;8040;50.254;10.960;2022-09-01T07:59:32;98637.94;;;19.59;52.84
15884;BME280;8040;50.254;10.960;2022-09-01T08:02:17;98622.28;;;19.47;52.03
15884;BME280;8040;50.254;10.960;2022-09-01T08:05:02;98635.22;;;19.47;52.51
15884;BME280;8040;50.254;10.960;2022-09-01T08:07:48;98620.56;;;19.31;52.36
15884;BME280;8040;50.254;10.960;2022-09-01T08:10:32;98633.31;;;19.35;52.14
15884;BME280;8040;50.254;10.960;2022-09-01T08:13:17;98647.41;;;19.34;52.43
15884;BME280;8040;50.254;10.960;2022-09-01T08:16:05;98634.47;;;19.34;52.42
15884;BME280;8040;50.254;10.960;2022-09-01T08:18:49;98639.63;;;19.63;52.00
15884;BME280;8040;50.254;10.960;2022-09-01T08:21:33;98633.66;;;19.73;50.73
15884;BME280;8040;50.254;10.960;2022-09-01T08:24:18;98635.72;;;19.64;50.41
15884;BME280;8040;50.254;10.960;2022-09-01T08:27:02;98637.25;;;19.62;50.88
15884;BME280;8040;50.254;10.960;2022-09-01T08:29:47;98642.38;;;19.63;50.61
15884;BME280;8040;50.254;10.960;2022-09-01T08:32:32;98647.25;;;19.54;50.67
15884;BME280;8040;50.254;10.960;2022-09-01T08:35:19;98643.34;;;19.55;50.39
15884;BME280;8040;50.254;10.960;2022-09-01T08:38:03;98638.28;;;19.57;49.84
15884;BME280;8040;50.254;10.960;2022-09-01T08:40:54;98642.53;;;19.55;49.69
15884;BME280;8040;50.254;10.960;2022-09-01T08:43:55;98639.63;;;19.63;49.02
15884;BME280;8040;50.254;10.960;2022-09-01T08:46:43;98646.94;;;19.83;49.13
15884;BME280;8040;50.254;10.960;2022-09-01T08:49:27;98651.09;;;20.05;48.78
15884;BME280;8040;50.254;10.960;2022-09-01T08:55:20;98651.34;;;19.60;49.02
15884;BME280;8040;50.254;10.960;2022-09-01T08:58:09;98645.75;;;19.57;49.02
15884;BME280;8040;50.254;10.960;2022-09-01T09:00:59;98645.34;;;19.70;48.38
15884;BME280;8040;50.254;10.960;2022-09-01T09:03:47;98647.63;;;19.80;48.48
15884;BME280;8040;50.254;10.960;2022-09-01T09:06:56;98645.47;;;20.01;47.89
15884;BME280;8040;50.254;10.960;2022-09-01T09:10:24;98644.81;;;19.92;47.16
15884;BME280;8040;50.254;10.960;2022-09-01T09:16:08;98648.22;;;20.13;47.20
15884;BME280;8040;50.254;10.960;2022-09-01T09:18:59;98640.22;;;20.24;46.53
15884;BME280;8040;50.254;10.960;2022-09-01T09:21:47;98636.69;;;20.54;45.62
15884;BME280;8040;50.254;10.960;2022-09-01T09:24:57;98641.06;;;20.71;45.29
15884;BME280;8040;50.254;10.960;2022-09-01T09:27:44;98635.84;;;20.81;43.76
15884;BME280;8040;50.254;10.960;2022-09-01T09:30:29;98635.00;;;20.81;43.16
15884;BME280;8040;50.254;10.960;2022-09-01T09:33:46;98619.28;;;20.81;42.91
15884;BME280;8040;50.254;10.960;2022-09-01T09:36:35;98619.38;;;20.85;40.47
15884;BME280;8040;50.254;10.960;2022-09-01T09:39:19;98624.63;;;21.05;41.61
15884;BME280;8040;50.254;10.960;2022-09-01T09:42:07;98621.50;;;20.91;41.80
15884;BME280;8040;50.254;10.960;2022-09-01T09:44:53;98627.91;;;20.80;42.00
15884;BME280;8040;50.254;10.960;2022-09-01T09:47:41;98623.47;;;20.91;41.72
15884;BME280;8040;50.254;10.960;2022-09-01T09:50:31;98633.34;;;20.76;40.92
15884;BME280;8040;50.254;10.960;2022-09-01T09:53:26;98628.09;;;20.71;41.46
15884;BME280;8040;50.254;10.960;2022-09-01T09:56:21;98627.56;;;20.81;40.73
15884;BME280;8040;50.254;10.960;2022-09-01T09:59:30;98627.00;;;20.76;41.10
15884;BME280;8040;50.254;10.960;2022-09-01T10:02:27;98626.94;;;20.88;40.23
15884;BME280;8040;50.254;10.960;2022-09-01T10:05:27;98619.38;;;20.85;40.50
15884;BME280;8040;50.254;10.960;2022-09-01T10:11:37;98631.38;;;20.92;40.38
15884;BME280;8040;50.254;10.960;2022-09-01T10:14:32;98623.97;;;20.81;39.98
15884;BME280;8040;50.254;10.960;2022-09-01T10:17:23;98627.81;;;20.76;39.94
15884;BME280;8040;50.254;10.960;2022-09-01T10:20:15;98627.00;;;20.76;40.32
15884;BME280;8040;50.254;10.960;2022-09-01T10:23:00;98617.78;;;20.84;40.40
15884;BME280;8040;50.254;10.960;2022-09-01T10:25:45;98624.78;;;21.12;40.36
15884;BME280;8040;50.254;10.960;2022-09-01T10:28:43;98622.38;;;21.11;39.50
15884;BME280;8040;50.254;10.960;2022-09-01T10:31:29;98605.94;;;21.33;39.86
15884;BME280;8040;50.254;10.960;2022-09-01T10:34:15;98616.00;;;21.60;39.81
15884;BME280;8040;50.254;10.960;2022-09-01T10:37:00;98612.63;;;21.32;39.88
15884;BME280;8040;50.254;10.960;2022-09-01T10:43:28;98624.06;;;20.84;41.12
15884;BME280;8040;50.254;10.960;2022-09-01T10:52:05;98607.44;;;20.81;41.92
15884;BME280;8040;50.254;10.960;2022-09-01T10:54:52;98608.59;;;21.11;41.41
15884;BME280;8040;50.254;10.960;2022-09-01T11:08:57;98614.69;;;21.35;39.56
15884;BME280;8040;50.254;10.960;2022-09-01T11:14:57;98615.09;;;21.72;39.52
15884;BME280;8040;50.254;10.960;2022-09-01T11:20:39;98587.84;;;21.70;38.42
15884;BME280;8040;50.254;10.960;2022-09-01T11:23:27;98594.56;;;22.11;38.36
15884;BME280;8040;50.254;10.960;2022-09-01T11:32:37;98602.13;;;22.55;38.13
15884;BME280;8040;50.254;10.960;2022-09-01T11:35:24;98598.16;;;22.34;37.34
15884;BME280;8040;50.254;10.960;2022-09-01T11:38:11;98607.13;;;22.27;37.32
15884;BME280;8040;50.254;10.960;2022-09-01T11:40:57;98597.03;;;22.38;37.58
15884;BME280;8040;50.254;10.960;2022-09-01T11:43:41;98596.09;;;21.89;37.65
15884;BME280;8040;50.254;10.960;2022-09-01T11:46:33;98589.00;;;21.69;38.42
15884;BME280;8040;50.254;10.960;2022-09-01T11:49:25;98606.94;;;21.79;38.08
15884;BME280;8040;50.254;10.960;2022-09-01T11:52:14;98590.50;;;21.48;37.87
15884;BME280;8040;50.254;10.960;2022-09-01T11:54:59;98604.41;;;21.70;38.46
15884;BME280;8040;50.254;10.960;2022-09-01T11:57:43;98595.41;;;21.73;37.69
15884;BME280;8040;50.254;10.960;2022-09-01T12:00:31;98598.81;;;21.86;37.78
15884;BME280;8040;50.254;10.960;2022-09-01T12:03:27;98610.81;;;21.93;37.65
15884;BME280;8040;50.254;10.960;2022-09-01T12:06:19;98593.00;;;21.72;37.23
15884;BME280;8040;50.254;10.960;2022-09-01T12:09:04;98595.88;;;21.60;37.96
15884;BME280;8040;50.254;10.960;2022-09-01T12:11:48;98590.84;;;21.65;38.35
15884;BME280;8040;50.254;10.960;2022-09-01T12:14:34;98581.31;;;21.78;38.23
15884;BME280;8040;50.254;10.960;2022-09-01T12:17:19;98588.00;;;21.96;38.03
15884;BME280;8040;50.254;10.960;2022-09-01T12:23:26;98562.09;;;21.66;38.12
15884;BME280;8040;50.254;10.960;2022-09-01T12:26:15;98581.19;;;21.56;38.38
15884;BME280;8040;50.254;10.960;2022-09-01T12:29:00;98556.66;;;21.51;38.76
15884;BME280;8040;50.254;10.960;2022-09-01T12:31:47;98554.88;;;21.62;38.57
15884;BME280;8040;50.254;10.960;2022-09-01T12:37:21;98565.22;;;21.84;38.43
15884;BME280;8040;50.254;10.960;2022-09-01T12:40:30;98560.81;;;21.79;38.24
15884;BME280;8040;50.254;10.960;2022-09-01T12:43:35;98555.28;;;21.79;37.95
15884;BME280;8040;50.254;10.960;2022-09-01T12:46:42;98570.84;;;21.68;37.53
15884;BME280;8040;50.254;10.960;2022-09-01T12:49:36;98557.59;;;21.77;37.54
15884;BME280;8040;50.254;10.960;2022-09-01T12:52:23;98565.00;;;21.92;37.31
15884;BME280;8040;50.254;10.960;2022-09-01T12:55:14;98559.69;;;22.03;37.06
15884;BME280;8040;50.254;10.960;2022-09-01T12:58:01;98552.72;;;21.90;36.88
15884;BME280;8040;50.254;10.960;2022-09-01T13:01:01;98565.44;;;21.94;37.35
15884;BME280;8040;50.254;10.960;2022-09-01T13:04:14;98557.91;;;21.91;36.72
15884;BME280;8040;50.254;10.960;2022-09-01T13:07:05;98554.03;;;21.96;36.97
15884;BME280;8040;50.254;10.960;2022-09-01T13:09:49;98543.69;;;21.93;36.62
15884;BME280;8040;50.254;10.960;2022-09-01T13:12:39;98535.66;;;21.84;36.61
15884;BME280;8040;50.254;10.960;2022-09-01T13:15:24;98535.03;;;21.94;36.46
15884;BME280;8040;50.254;10.960;2022-09-01T13:18:08;98521.13;;;22.10;36.46
15884;BME280;8040;50.254;10.960;2022-09-01T13:20:54;98541.03;;;22.41;35.85
15884;BME280;8040;50.254;10.960;2022-09-01T13:23:39;98530.28;;;22.36;36.64
15884;BME280;8040;50.254;10.960;2022-09-01T13:26:23;98536.28;;;22.19;35.89
15884;BME280;8040;50.254;10.960;2022-09-01T13:29:07;98527.94;;;21.93;36.51
15884;BME280;8040;50.254;10.960;2022-09-01T13:31:51;98539.09;;;22.00;36.88
15884;BME280;8040;50.254;10.960;2022-09-01T13:34:35;98534.56;;;22.11;37.24
15884;BME280;8040;50.254;10.960;2022-09-01T13:37:20;98528.13;;;22.04;36.56
15884;BME280;8040;50.254;10.960;2022-09-01T13:40:05;98524.81;;;22.17;37.27
15884;BME280;8040;50.254;10.960;2022-09-01T13:42:58;98512.50;;;22.37;37.48
15884;BME280;8040;50.254;10.960;2022-09-01T13:45:42;98518.75;;;22.53;37.27
15884;BME280;8040;50.254;10.960;2022-09-01T13:48:26;98528.13;;;22.71;36.76
15884;BME280;8040;50.254;10.960;2022-09-01T13:51:11;98526.13;;;22.72;36.85
15884;BME280;8040;50.254;10.960;2022-09-01T13:53:56;98523.66;;;22.63;36.65
15884;BME280;8040;50.254;10.960;2022-09-01T13:56:40;98533.34;;;22.54;37.22
15884;BME280;8040;50.254;10.960;2022-09-01T13:59:24;98532.41;;;22.43;37.38
15884;BME280;8040;50.254;10.960;2022-09-01T14:02:08;98513.47;;;22.22;37.30
15884;BME280;8040;50.254;10.960;2022-09-01T14:04:53;98519.75;;;22.23;37.81
15884;BME280;8040;50.254;10.960;2022-09-01T14:07:37;98511.94;;;22.25;37.01
15884;BME280;8040;50.254;10.960;2022-09-01T14:10:22;98527.69;;;22.24;36.99
15884;BME280;8040;50.254;10.960;2022-09-01T14:13:07;98508.22;;;22.17;36.62
15884;BME280;8040;50.254;10.960;2022-09-01T14:15:52;98520.28;;;22.28;36.80
15884;BME280;8040;50.254;10.960;2022-09-01T14:18:36;98517.50;;;22.28;36.81
15884;BME280;8040;50.254;10.960;2022-09-01T14:21:21;98513.94;;;22.28;36.45
15884;BME280;8040;50.254;10.960;2022-09-01T14:24:05;98520.16;;;22.21;36.71
15884;BME280;8040;50.254;10.960;2022-09-01T14:26:50;98522.06;;;22.17;36.49
15884;BME280;8040;50.254;10.960;2022-09-01T14:29:37;98529.81;;;22.53;36.44
15884;BME280;8040;50.254;10.960;2022-09-01T14:32:21;98509.38;;;22.61;36.25
15884;BME280;8040;50.254;10.960;2022-09-01T14:35:09;98518.34;;;22.77;36.21
15884;BME280;8040;50.254;10.960;2022-09-01T14:37:54;98514.28;;;22.71;36.51
15884;BME280;8040;50.254;10.960;2022-09-01T14:40:39;98518.75;;;22.79;36.18
15884;BME280;8040;50.254;10.960;2022-09-01T14:43:24;98502.31;;;22.41;35.47
15884;BME280;8040;50.254;10.960;2022-09-01T14:46:09;98513.09;;;22.46;36.36
15884;BME280;8040;50.254;10.960;2022-09-01T14:48:55;98515.34;;;22.63;36.02
15884;BME280;8040;50.254;10.960;2022-09-01T14:51:39;98487.38;;;22.68;35.90
15884;BME280;8040;50.254;10.960;2022-09-01T14:54:23;98506.75;;;22.46;35.95
15884;BME280;8040;50.254;10.960;2022-09-01T14:57:08;98489.22;;;22.38;35.87
15884;BME280;8040;50.254;10.960;2022-09-01T14:59:52;98488.22;;;22.46;35.89
15884;BME280;8040;50.254;10.960;2022-09-01T15:02:40;98506.75;;;22.46;35.75
15884;BME280;8040;50.254;10.960;2022-09-01T15:05:24;98481.28;;;22.33;35.97
15884;BME280;8040;50.254;10.960;2022-09-01T15:08:08;98477.31;;;22.57;35.91
15884;BME280;8040;50.254;10.960;2022-09-01T15:10:53;98471.63;;;22.72;35.54
15884;BME280;8040;50.254;10.960;2022-09-01T15:13:38;98495.34;;;22.73;35.47
15884;BME280;8040;50.254;10.960;2022-09-01T15:16:24;98483.66;;;22.83;35.65
15884;BME280;8040;50.254;10.960;2022-09-01T15:19:10;98491.19;;;22.86;35.19
15884;BME280;8040;50.254;10.960;2022-09-01T15:21:54;98465.88;;;22.84;35.49
15884;BME280;8040;50.254;10.960;2022-09-01T15:24:39;98479.03;;;22.91;34.57
15884;BME280;8040;50.254;10.960;2022-09-01T15:27:23;98489.81;;;22.73;34.93
15884;BME280;8040;50.254;10.960;2022-09-01T15:30:07;98459.25;;;22.63;34.64
15884;BME280;8040;50.254;10.960;2022-09-01T15:32:57;98473.78;;;22.60;35.28